Airfield :
LOGIN :

Register | Disclaimer

   EN    FR    IT 

 










Legend :    VFR   Marginal VFR   IFR   Intensive IFR   Very Intensive IFR
Visi :
Ceiling :
>= 8 km
>= 3000ft
5 to 8 km
1000 to 3000 ft
1500m to 5 km
500 to 1000 ft
800 to 1500m
200 to 500 ft
< 800m
< 200 ft
Symbols :   Thunderstorms  Fog  Heavy snow  Heavy precipitations  Wind > 20 kt
SIGMETs :     Misc.  Thunderstorms  Icing  Turbulence  Mountain Waves  Volcanic Ashes







- Airport Elevation : 327 ft
- IATA code : BHX
- Download approach charts


EGBB - Birmingham

CURRENT METAR :
  • 211720Z 20012KT 180V240 9999 BKN014 BKN024 12/10 Q0996

EXPIRED METARs :
  • 211650Z 20012G23KT 170V230 9999 -RA BKN014 BKN025 12/10 Q0995
  • 211620Z 20014KT 170V230 7000 -RADZ BKN014 BKN022 12/10 Q0995
  • 211550Z 20013KT 170V240 8000 -RADZ BKN014 BKN027 12/10 Q0995
  • 211520Z 19015KT 9999 VCSH SCT016 BKN028 12/09 Q0995
  • 211450Z 19014G25KT 130V240 9999 -RA BKN019 BKN024 12/10 Q0995

TAF TAF EGBB
Valid from the 21 at 12:00 until the 22 at 12:00 UTC


211054Z 2112/2212 21018G30KT 9999 SCT030
TEMPO 2112/2115 6000 SHRA
PROB30
TEMPO 2112/2115 23030G42KT 4000 +SHRA BKN014CB
BECMG 2115/2118 25015KT
TEMPO 2115/2118 4000 SHRA BKN012
TEMPO 2115/2212 26018G32KT
TEMPO 2203/2207 6000 SHRA
PROB30
TEMPO 2203/2207 BKN010
ATIS : +44 121 780 0910
No reported NOTAMs for that airfield.
2 SIGMETs reported for the London FIR (EGTT) :
 
Severe turbulence
EGTT SIGMET 05 VALID 211800/212200 EGRR
EGTT LONDON FIR SEV TURB FCST SE OF LINE N5500 W00059 - N5332 W00530 SFC/FL060 STNR WKN=
Severe turbulence
EGTT SIGMET 04 VALID 211400/211800 EGRR
EGTT LONDON FIR SEV TURB FCST S OF N5400 SFC/FL060 STNR WKN=



MET'MAP, your aeronautical weather chart ! - Copyright ORBIFLY December 2007 - Disclaimer

ORBIFLY MET'MAP TEAM :

Programming & Development : Alexandra Zaïnal
Concept & Development : Baudouin d'Aumeries
Co-Development & Prog : Marc-Olivier Méhu
Technical & hardware support : Manuel Goepfert

Contact : metmap@orbifly.com




SOURCES & CREDITS :

   NOAA